sensor_id;sensor_type;location;lat;lon;timestamp;P1;durP1;ratioP1;P2;durP2;ratioP2
27758;SDS011;15148;48.972;12.794;2023-12-14T00:00:57;7.88;;;4.43;;
27758;SDS011;15148;48.972;12.794;2023-12-14T00:05:59;6.32;;;4.10;;
27758;SDS011;15148;48.972;12.794;2023-12-14T00:11:05;6.15;;;4.28;;
27758;SDS011;15148;48.972;12.794;2023-12-14T00:16:11;5.53;;;3.90;;
27758;SDS011;15148;48.972;12.794;2023-12-14T00:21:13;5.95;;;4.45;;
27758;SDS011;15148;48.972;12.794;2023-12-14T00:26:15;7.05;;;4.63;;
27758;SDS011;15148;48.972;12.794;2023-12-14T00:31:18;6.70;;;4.78;;
27758;SDS011;15148;48.972;12.794;2023-12-14T00:36:20;9.23;;;5.40;;
27758;SDS011;15148;48.972;12.794;2023-12-14T00:41:22;9.25;;;5.40;;
27758;SDS011;15148;48.972;12.794;2023-12-14T00:46:24;10.85;;;5.55;;
27758;SDS011;15148;48.972;12.794;2023-12-14T00:51:26;7.45;;;5.40;;
27758;SDS011;15148;48.972;12.794;2023-12-14T00:56:28;7.93;;;5.10;;
27758;SDS011;15148;48.972;12.794;2023-12-14T01:01:30;8.15;;;5.32;;
27758;SDS011;15148;48.972;12.794;2023-12-14T01:06:32;9.23;;;6.15;;
27758;SDS011;15148;48.972;12.794;2023-12-14T01:11:34;12.82;;;6.72;;
27758;SDS011;15148;48.972;12.794;2023-12-14T01:16:36;8.48;;;5.93;;
27758;SDS011;15148;48.972;12.794;2023-12-14T01:21:38;9.02;;;6.00;;
27758;SDS011;15148;48.972;12.794;2023-12-14T01:26:40;9.20;;;7.20;;
27758;SDS011;15148;48.972;12.794;2023-12-14T01:31:42;9.43;;;6.32;;
27758;SDS011;15148;48.972;12.794;2023-12-14T01:36:44;9.73;;;6.13;;
27758;SDS011;15148;48.972;12.794;2023-12-14T01:41:46;8.15;;;6.10;;
27758;SDS011;15148;48.972;12.794;2023-12-14T01:46:48;8.48;;;6.18;;
27758;SDS011;15148;48.972;12.794;2023-12-14T01:51:50;8.70;;;5.93;;
27758;SDS011;15148;48.972;12.794;2023-12-14T01:56:52;9.45;;;5.82;;
27758;SDS011;15148;48.972;12.794;2023-12-14T02:01:55;6.57;;;5.15;;
27758;SDS011;15148;48.972;12.794;2023-12-14T02:06:58;8.93;;;5.30;;
27758;SDS011;15148;48.972;12.794;2023-12-14T02:12:01;10.43;;;6.05;;
27758;SDS011;15148;48.972;12.794;2023-12-14T02:17:03;10.05;;;6.68;;
27758;SDS011;15148;48.972;12.794;2023-12-14T02:22:05;10.40;;;7.25;;
27758;SDS011;15148;48.972;12.794;2023-12-14T02:27:07;8.60;;;5.70;;
27758;SDS011;15148;48.972;12.794;2023-12-14T02:32:09;9.00;;;6.35;;
27758;SDS011;15148;48.972;12.794;2023-12-14T02:37:11;8.30;;;6.30;;
27758;SDS011;15148;48.972;12.794;2023-12-14T02:42:13;8.90;;;6.70;;
27758;SDS011;15148;48.972;12.794;2023-12-14T02:47:16;9.23;;;6.43;;
27758;SDS011;15148;48.972;12.794;2023-12-14T02:52:18;7.40;;;5.57;;
27758;SDS011;15148;48.972;12.794;2023-12-14T02:57:21;8.27;;;5.50;;
27758;SDS011;15148;48.972;12.794;2023-12-14T03:02:23;7.55;;;5.88;;
27758;SDS011;15148;48.972;12.794;2023-12-14T03:07:24;7.35;;;5.63;;
27758;SDS011;15148;48.972;12.794;2023-12-14T03:12:26;7.82;;;5.72;;
27758;SDS011;15148;48.972;12.794;2023-12-14T03:17:28;8.02;;;6.93;;
27758;SDS011;15148;48.972;12.794;2023-12-14T03:22:30;8.05;;;6.57;;
27758;SDS011;15148;48.972;12.794;2023-12-14T03:27:34;9.65;;;6.20;;
27758;SDS011;15148;48.972;12.794;2023-12-14T03:32:36;8.68;;;5.93;;
27758;SDS011;15148;48.972;12.794;2023-12-14T03:37:39;7.80;;;5.30;;
27758;SDS011;15148;48.972;12.794;2023-12-14T03:42:40;8.68;;;5.43;;
27758;SDS011;15148;48.972;12.794;2023-12-14T03:47:42;7.43;;;5.45;;
27758;SDS011;15148;48.972;12.794;2023-12-14T03:52:44;4.70;;;3.70;;
27758;SDS011;15148;48.972;12.794;2023-12-14T03:57:46;4.18;;;3.53;;
27758;SDS011;15148;48.972;12.794;2023-12-14T04:02:48;8.30;;;4.20;;
27758;SDS011;15148;48.972;12.794;2023-12-14T04:07:50;6.70;;;3.03;;
27758;SDS011;15148;48.972;12.794;2023-12-14T04:12:53;4.22;;;2.75;;
27758;SDS011;15148;48.972;12.794;2023-12-14T04:17:54;3.05;;;2.08;;
27758;SDS011;15148;48.972;12.794;2023-12-14T04:22:56;6.20;;;1.75;;
27758;SDS011;15148;48.972;12.794;2023-12-14T04:27:58;2.22;;;1.30;;
27758;SDS011;15148;48.972;12.794;2023-12-14T04:33:00;3.30;;;1.35;;
27758;SDS011;15148;48.972;12.794;2023-12-14T04:38:03;1.23;;;1.13;;
27758;SDS011;15148;48.972;12.794;2023-12-14T04:43:05;4.97;;;1.20;;
27758;SDS011;15148;48.972;12.794;2023-12-14T04:48:07;1.73;;;1.42;;
27758;SDS011;15148;48.972;12.794;2023-12-14T04:53:09;1.33;;;1.10;;
27758;SDS011;15148;48.972;12.794;2023-12-14T04:58:11;1.88;;;1.30;;
27758;SDS011;15148;48.972;12.794;2023-12-14T05:03:13;3.20;;;1.02;;
27758;SDS011;15148;48.972;12.794;2023-12-14T05:08:15;1.52;;;1.38;;
27758;SDS011;15148;48.972;12.794;2023-12-14T05:13:17;1.13;;;1.13;;
27758;SDS011;15148;48.972;12.794;2023-12-14T05:18:19;1.83;;;1.30;;
27758;SDS011;15148;48.972;12.794;2023-12-14T05:23:21;3.28;;;1.25;;
27758;SDS011;15148;48.972;12.794;2023-12-14T05:28:25;1.45;;;1.25;;
27758;SDS011;15148;48.972;12.794;2023-12-14T05:33:27;2.45;;;1.70;;
27758;SDS011;15148;48.972;12.794;2023-12-14T05:38:29;3.28;;;1.85;;
27758;SDS011;15148;48.972;12.794;2023-12-14T05:43:31;1.83;;;1.42;;
27758;SDS011;15148;48.972;12.794;2023-12-14T05:48:33;2.35;;;1.58;;
27758;SDS011;15148;48.972;12.794;2023-12-14T05:53:35;4.07;;;1.65;;
27758;SDS011;15148;48.972;12.794;2023-12-14T05:58:40;2.38;;;1.63;;
27758;SDS011;15148;48.972;12.794;2023-12-14T06:03:42;3.88;;;1.65;;
27758;SDS011;15148;48.972;12.794;2023-12-14T06:08:45;4.47;;;1.80;;
27758;SDS011;15148;48.972;12.794;2023-12-14T06:13:47;3.03;;;1.63;;
27758;SDS011;15148;48.972;12.794;2023-12-14T06:18:49;3.20;;;1.58;;
27758;SDS011;15148;48.972;12.794;2023-12-14T06:23:51;2.33;;;1.65;;
27758;SDS011;15148;48.972;12.794;2023-12-14T06:28:53;4.95;;;1.58;;
27758;SDS011;15148;48.972;12.794;2023-12-14T06:33:55;2.10;;;1.90;;
27758;SDS011;15148;48.972;12.794;2023-12-14T06:39:02;3.85;;;2.53;;
27758;SDS011;15148;48.972;12.794;2023-12-14T06:44:07;3.30;;;2.28;;
27758;SDS011;15148;48.972;12.794;2023-12-14T06:49:10;4.97;;;3.55;;
27758;SDS011;15148;48.972;12.794;2023-12-14T06:54:12;4.05;;;2.30;;
27758;SDS011;15148;48.972;12.794;2023-12-14T06:59:14;6.45;;;2.60;;
27758;SDS011;15148;48.972;12.794;2023-12-14T07:04:17;6.82;;;3.30;;
27758;SDS011;15148;48.972;12.794;2023-12-14T07:09:20;4.55;;;3.20;;
27758;SDS011;15148;48.972;12.794;2023-12-14T07:14:22;10.20;;;6.68;;
27758;SDS011;15148;48.972;12.794;2023-12-14T07:19:26;12.52;;;9.05;;
27758;SDS011;15148;48.972;12.794;2023-12-14T07:24:28;9.52;;;7.88;;
27758;SDS011;15148;48.972;12.794;2023-12-14T07:29:41;13.18;;;8.85;;
27758;SDS011;15148;48.972;12.794;2023-12-14T07:34:42;12.23;;;9.40;;
27758;SDS011;15148;48.972;12.794;2023-12-14T07:39:45;29.95;;;18.10;;
27758;SDS011;15148;48.972;12.794;2023-12-14T07:44:47;17.88;;;11.45;;
27758;SDS011;15148;48.972;12.794;2023-12-14T07:49:49;17.38;;;10.98;;
27758;SDS011;15148;48.972;12.794;2023-12-14T07:54:51;15.25;;;10.23;;
27758;SDS011;15148;48.972;12.794;2023-12-14T07:59:53;13.32;;;9.68;;
27758;SDS011;15148;48.972;12.794;2023-12-14T08:04:55;28.05;;;17.60;;
27758;SDS011;15148;48.972;12.794;2023-12-14T08:09:57;21.73;;;15.07;;
27758;SDS011;15148;48.972;12.794;2023-12-14T08:14:59;31.75;;;21.02;;
27758;SDS011;15148;48.972;12.794;2023-12-14T08:20:01;39.40;;;25.35;;
27758;SDS011;15148;48.972;12.794;2023-12-14T08:25:06;23.95;;;16.92;;
27758;SDS011;15148;48.972;12.794;2023-12-14T08:30:08;18.67;;;13.70;;
27758;SDS011;15148;48.972;12.794;2023-12-14T08:35:12;17.13;;;12.52;;
27758;SDS011;15148;48.972;12.794;2023-12-14T08:40:14;19.73;;;15.15;;
27758;SDS011;15148;48.972;12.794;2023-12-14T08:45:16;20.80;;;13.48;;
27758;SDS011;15148;48.972;12.794;2023-12-14T08:50:18;17.33;;;12.73;;
27758;SDS011;15148;48.972;12.794;2023-12-14T08:55:20;15.80;;;11.82;;
27758;SDS011;15148;48.972;12.794;2023-12-14T09:00:23;13.93;;;11.20;;
27758;SDS011;15148;48.972;12.794;2023-12-14T09:05:25;20.23;;;13.30;;
27758;SDS011;15148;48.972;12.794;2023-12-14T09:10:28;36.10;;;21.67;;
27758;SDS011;15148;48.972;12.794;2023-12-14T09:15:33;27.52;;;18.00;;
27758;SDS011;15148;48.972;12.794;2023-12-14T09:20:35;41.65;;;23.13;;
27758;SDS011;15148;48.972;12.794;2023-12-14T09:25:38;41.00;;;23.27;;
27758;SDS011;15148;48.972;12.794;2023-12-14T09:30:41;32.38;;;22.63;;
27758;SDS011;15148;48.972;12.794;2023-12-14T09:35:43;17.60;;;13.50;;
27758;SDS011;15148;48.972;12.794;2023-12-14T09:40:45;16.08;;;12.27;;
27758;SDS011;15148;48.972;12.794;2023-12-14T09:45:47;16.27;;;11.80;;
27758;SDS011;15148;48.972;12.794;2023-12-14T09:50:50;14.05;;;10.50;;
27758;SDS011;15148;48.972;12.794;2023-12-14T09:55:53;38.40;;;34.17;;
27758;SDS011;15148;48.972;12.794;2023-12-14T10:00:55;21.02;;;17.80;;
27758;SDS011;15148;48.972;12.794;2023-12-14T10:05:59;15.68;;;11.20;;
27758;SDS011;15148;48.972;12.794;2023-12-14T10:11:05;15.10;;;10.32;;
27758;SDS011;15148;48.972;12.794;2023-12-14T10:16:29;16.65;;;9.93;;
27758;SDS011;15148;48.972;12.794;2023-12-14T10:21:32;12.13;;;8.57;;
27758;SDS011;15148;48.972;12.794;2023-12-14T10:26:36;12.13;;;8.98;;
27758;SDS011;15148;48.972;12.794;2023-12-14T10:31:38;15.75;;;12.27;;
27758;SDS011;15148;48.972;12.794;2023-12-14T10:36:40;14.13;;;10.32;;
27758;SDS011;15148;48.972;12.794;2023-12-14T10:41:47;12.20;;;10.00;;
27758;SDS011;15148;48.972;12.794;2023-12-14T10:47:00;14.10;;;11.02;;
27758;SDS011;15148;48.972;12.794;2023-12-14T10:52:05;19.90;;;12.73;;
27758;SDS011;15148;48.972;12.794;2023-12-14T10:57:08;17.38;;;12.50;;
27758;SDS011;15148;48.972;12.794;2023-12-14T11:02:10;18.80;;;11.68;;
27758;SDS011;15148;48.972;12.794;2023-12-14T11:07:13;18.50;;;11.48;;
27758;SDS011;15148;48.972;12.794;2023-12-14T11:12:19;17.55;;;13.25;;
27758;SDS011;15148;48.972;12.794;2023-12-14T11:17:22;19.27;;;16.20;;
27758;SDS011;15148;48.972;12.794;2023-12-14T11:22:24;13.80;;;10.93;;
27758;SDS011;15148;48.972;12.794;2023-12-14T11:27:29;12.43;;;9.45;;
27758;SDS011;15148;48.972;12.794;2023-12-14T11:32:32;10.45;;;8.27;;
27758;SDS011;15148;48.972;12.794;2023-12-14T11:37:34;11.18;;;8.02;;
27758;SDS011;15148;48.972;12.794;2023-12-14T11:42:37;12.52;;;8.95;;
27758;SDS011;15148;48.972;12.794;2023-12-14T11:47:39;11.45;;;9.18;;
27758;SDS011;15148;48.972;12.794;2023-12-14T11:52:42;17.02;;;10.15;;
27758;SDS011;15148;48.972;12.794;2023-12-14T11:57:48;20.02;;;10.77;;
27758;SDS011;15148;48.972;12.794;2023-12-14T12:02:50;38.28;;;15.63;;
27758;SDS011;15148;48.972;12.794;2023-12-14T12:07:57;26.65;;;11.45;;
27758;SDS011;15148;48.972;12.794;2023-12-14T12:13:02;18.05;;;10.30;;
27758;SDS011;15148;48.972;12.794;2023-12-14T12:18:08;21.65;;;12.02;;
27758;SDS011;15148;48.972;12.794;2023-12-14T12:23:11;13.45;;;9.63;;
27758;SDS011;15148;48.972;12.794;2023-12-14T12:28:15;11.70;;;9.00;;
27758;SDS011;15148;48.972;12.794;2023-12-14T12:33:23;12.23;;;7.57;;
27758;SDS011;15148;48.972;12.794;2023-12-14T12:38:25;9.88;;;8.88;;
27758;SDS011;15148;48.972;12.794;2023-12-14T12:43:28;12.13;;;9.05;;
27758;SDS011;15148;48.972;12.794;2023-12-14T12:48:30;10.38;;;8.43;;
27758;SDS011;15148;48.972;12.794;2023-12-14T12:53:32;9.55;;;6.85;;
27758;SDS011;15148;48.972;12.794;2023-12-14T12:58:35;10.90;;;9.23;;
27758;SDS011;15148;48.972;12.794;2023-12-14T13:03:36;10.93;;;8.05;;
27758;SDS011;15148;48.972;12.794;2023-12-14T13:08:38;8.60;;;6.60;;
27758;SDS011;15148;48.972;12.794;2023-12-14T13:13:40;9.00;;;7.47;;
27758;SDS011;15148;48.972;12.794;2023-12-14T13:18:43;10.60;;;7.72;;
27758;SDS011;15148;48.972;12.794;2023-12-14T13:23:47;12.60;;;8.32;;
27758;SDS011;15148;48.972;12.794;2023-12-14T13:28:50;8.73;;;6.60;;
27758;SDS011;15148;48.972;12.794;2023-12-14T13:33:53;8.60;;;7.32;;
27758;SDS011;15148;48.972;12.794;2023-12-14T13:38:55;9.13;;;6.90;;
27758;SDS011;15148;48.972;12.794;2023-12-14T13:43:57;10.45;;;6.78;;
27758;SDS011;15148;48.972;12.794;2023-12-14T13:48:59;8.57;;;6.03;;
27758;SDS011;15148;48.972;12.794;2023-12-14T13:54:02;8.05;;;6.28;;
27758;SDS011;15148;48.972;12.794;2023-12-14T13:59:04;8.13;;;6.30;;
27758;SDS011;15148;48.972;12.794;2023-12-14T14:04:06;7.72;;;6.32;;
27758;SDS011;15148;48.972;12.794;2023-12-14T14:09:08;8.45;;;6.30;;
27758;SDS011;15148;48.972;12.794;2023-12-14T14:14:10;11.68;;;7.07;;
27758;SDS011;15148;48.972;12.794;2023-12-14T14:19:12;8.10;;;6.40;;
27758;SDS011;15148;48.972;12.794;2023-12-14T14:24:14;8.65;;;7.72;;
27758;SDS011;15148;48.972;12.794;2023-12-14T14:29:16;6.97;;;6.28;;
27758;SDS011;15148;48.972;12.794;2023-12-14T14:34:20;16.35;;;13.43;;
27758;SDS011;15148;48.972;12.794;2023-12-14T14:39:25;25.05;;;16.80;;
27758;SDS011;15148;48.972;12.794;2023-12-14T14:44:27;14.25;;;11.98;;
27758;SDS011;15148;48.972;12.794;2023-12-14T14:49:29;12.43;;;10.00;;
27758;SDS011;15148;48.972;12.794;2023-12-14T14:54:31;12.60;;;9.00;;
27758;SDS011;15148;48.972;12.794;2023-12-14T14:59:33;12.80;;;10.27;;
27758;SDS011;15148;48.972;12.794;2023-12-14T15:04:35;22.45;;;17.75;;
27758;SDS011;15148;48.972;12.794;2023-12-14T15:09:37;19.48;;;15.40;;
27758;SDS011;15148;48.972;12.794;2023-12-14T15:14:39;12.27;;;8.57;;
27758;SDS011;15148;48.972;12.794;2023-12-14T15:19:41;12.10;;;10.10;;
27758;SDS011;15148;48.972;12.794;2023-12-14T15:24:43;15.20;;;12.38;;
27758;SDS011;15148;48.972;12.794;2023-12-14T15:29:45;11.43;;;8.65;;
27758;SDS011;15148;48.972;12.794;2023-12-14T15:34:47;11.07;;;9.18;;
27758;SDS011;15148;48.972;12.794;2023-12-14T15:39:51;11.40;;;8.13;;
27758;SDS011;15148;48.972;12.794;2023-12-14T15:44:54;18.08;;;16.27;;
27758;SDS011;15148;48.972;12.794;2023-12-14T15:49:56;13.30;;;11.82;;
27758;SDS011;15148;48.972;12.794;2023-12-14T15:54:58;14.75;;;6.38;;
27758;SDS011;15148;48.972;12.794;2023-12-14T16:00:02;13.65;;;6.07;;
27758;SDS011;15148;48.972;12.794;2023-12-14T16:05:07;8.65;;;5.90;;
27758;SDS011;15148;48.972;12.794;2023-12-14T16:10:10;9.10;;;5.93;;
27758;SDS011;15148;48.972;12.794;2023-12-14T16:15:12;7.10;;;5.03;;
27758;SDS011;15148;48.972;12.794;2023-12-14T16:20:14;9.57;;;6.18;;
27758;SDS011;15148;48.972;12.794;2023-12-14T16:25:17;8.50;;;6.35;;
27758;SDS011;15148;48.972;12.794;2023-12-14T16:30:19;7.22;;;6.07;;
27758;SDS011;15148;48.972;12.794;2023-12-14T16:35:21;8.52;;;6.60;;
27758;SDS011;15148;48.972;12.794;2023-12-14T16:40:23;7.72;;;6.43;;
27758;SDS011;15148;48.972;12.794;2023-12-14T16:45:25;9.02;;;7.03;;
27758;SDS011;15148;48.972;12.794;2023-12-14T16:50:27;10.70;;;8.18;;
27758;SDS011;15148;48.972;12.794;2023-12-14T16:55:29;12.82;;;10.05;;
27758;SDS011;15148;48.972;12.794;2023-12-14T17:00:31;15.27;;;13.55;;
27758;SDS011;15148;48.972;12.794;2023-12-14T17:05:33;14.27;;;8.68;;
27758;SDS011;15148;48.972;12.794;2023-12-14T17:10:36;16.58;;;10.60;;
27758;SDS011;15148;48.972;12.794;2023-12-14T17:15:38;13.50;;;9.55;;
27758;SDS011;15148;48.972;12.794;2023-12-14T17:20:39;12.55;;;8.77;;
27758;SDS011;15148;48.972;12.794;2023-12-14T17:25:42;37.83;;;23.52;;
27758;SDS011;15148;48.972;12.794;2023-12-14T17:30:44;18.20;;;10.88;;
27758;SDS011;15148;48.972;12.794;2023-12-14T17:35:46;25.90;;;12.00;;
27758;SDS011;15148;48.972;12.794;2023-12-14T17:40:49;15.38;;;11.50;;
27758;SDS011;15148;48.972;12.794;2023-12-14T17:45:51;19.40;;;13.27;;
27758;SDS011;15148;48.972;12.794;2023-12-14T17:50:53;19.85;;;12.68;;
27758;SDS011;15148;48.972;12.794;2023-12-14T17:55:57;22.98;;;17.58;;
27758;SDS011;15148;48.972;12.794;2023-12-14T18:01:00;28.73;;;20.55;;
27758;SDS011;15148;48.972;12.794;2023-12-14T18:06:06;24.45;;;19.10;;
27758;SDS011;15148;48.972;12.794;2023-12-14T18:11:08;43.10;;;31.05;;
27758;SDS011;15148;48.972;12.794;2023-12-14T18:16:12;24.80;;;18.23;;
27758;SDS011;15148;48.972;12.794;2023-12-14T18:21:14;20.25;;;16.27;;
27758;SDS011;15148;48.972;12.794;2023-12-14T18:26:16;26.90;;;18.00;;
27758;SDS011;15148;48.972;12.794;2023-12-14T18:31:18;23.58;;;16.17;;
27758;SDS011;15148;48.972;12.794;2023-12-14T18:36:21;28.88;;;19.65;;
27758;SDS011;15148;48.972;12.794;2023-12-14T18:41:23;27.08;;;19.63;;
27758;SDS011;15148;48.972;12.794;2023-12-14T18:46:26;22.02;;;16.17;;
27758;SDS011;15148;48.972;12.794;2023-12-14T18:51:28;29.55;;;22.00;;
27758;SDS011;15148;48.972;12.794;2023-12-14T18:56:30;27.80;;;18.35;;
27758;SDS011;15148;48.972;12.794;2023-12-14T19:01:33;35.78;;;23.90;;
27758;SDS011;15148;48.972;12.794;2023-12-14T19:06:36;27.65;;;18.35;;
27758;SDS011;15148;48.972;12.794;2023-12-14T19:11:38;63.03;;;42.70;;
27758;SDS011;15148;48.972;12.794;2023-12-14T19:16:40;25.98;;;14.40;;
27758;SDS011;15148;48.972;12.794;2023-12-14T19:21:42;20.13;;;14.57;;
27758;SDS011;15148;48.972;12.794;2023-12-14T19:26:45;20.35;;;14.40;;
27758;SDS011;15148;48.972;12.794;2023-12-14T19:31:47;19.75;;;15.50;;
27758;SDS011;15148;48.972;12.794;2023-12-14T19:36:49;26.50;;;21.15;;
27758;SDS011;15148;48.972;12.794;2023-12-14T19:41:51;20.40;;;14.52;;
27758;SDS011;15148;48.972;12.794;2023-12-14T19:46:53;27.50;;;19.52;;
27758;SDS011;15148;48.972;12.794;2023-12-14T19:51:56;18.25;;;13.48;;
27758;SDS011;15148;48.972;12.794;2023-12-14T19:56:58;19.65;;;13.82;;
27758;SDS011;15148;48.972;12.794;2023-12-14T20:01:59;20.90;;;14.90;;
27758;SDS011;15148;48.972;12.794;2023-12-14T20:07:02;14.50;;;10.18;;
27758;SDS011;15148;48.972;12.794;2023-12-14T20:12:04;17.73;;;6.95;;
27758;SDS011;15148;48.972;12.794;2023-12-14T20:17:06;30.70;;;16.75;;
27758;SDS011;15148;48.972;12.794;2023-12-14T20:22:09;20.23;;;13.48;;
27758;SDS011;15148;48.972;12.794;2023-12-14T20:27:11;26.95;;;19.10;;
27758;SDS011;15148;48.972;12.794;2023-12-14T20:32:13;18.70;;;14.00;;
27758;SDS011;15148;48.972;12.794;2023-12-14T20:37:15;15.80;;;10.15;;
27758;SDS011;15148;48.972;12.794;2023-12-14T20:42:17;14.07;;;10.80;;
27758;SDS011;15148;48.972;12.794;2023-12-14T20:47:19;12.35;;;7.90;;
27758;SDS011;15148;48.972;12.794;2023-12-14T20:52:21;18.25;;;8.95;;
27758;SDS011;15148;48.972;12.794;2023-12-14T20:57:23;8.32;;;7.07;;
27758;SDS011;15148;48.972;12.794;2023-12-14T21:02:25;8.65;;;6.78;;
27758;SDS011;15148;48.972;12.794;2023-12-14T21:07:27;9.27;;;7.40;;
27758;SDS011;15148;48.972;12.794;2023-12-14T21:12:29;11.13;;;8.65;;
27758;SDS011;15148;48.972;12.794;2023-12-14T21:17:31;9.05;;;7.82;;
27758;SDS011;15148;48.972;12.794;2023-12-14T21:22:34;8.60;;;7.68;;
27758;SDS011;15148;48.972;12.794;2023-12-14T21:27:36;6.53;;;5.88;;
27758;SDS011;15148;48.972;12.794;2023-12-14T21:32:51;7.72;;;6.93;;
27758;SDS011;15148;48.972;12.794;2023-12-14T21:37:53;8.32;;;6.22;;
27758;SDS011;15148;48.972;12.794;2023-12-14T21:42:55;6.20;;;5.60;;
27758;SDS011;15148;48.972;12.794;2023-12-14T21:47:57;7.40;;;5.80;;
27758;SDS011;15148;48.972;12.794;2023-12-14T21:52:59;6.35;;;5.75;;
27758;SDS011;15148;48.972;12.794;2023-12-14T21:58:01;6.63;;;5.95;;
27758;SDS011;15148;48.972;12.794;2023-12-14T22:03:03;7.22;;;5.85;;
27758;SDS011;15148;48.972;12.794;2023-12-14T22:08:05;6.70;;;6.05;;
27758;SDS011;15148;48.972;12.794;2023-12-14T22:13:07;7.50;;;6.70;;
27758;SDS011;15148;48.972;12.794;2023-12-14T22:18:09;7.68;;;6.88;;
27758;SDS011;15148;48.972;12.794;2023-12-14T22:23:11;7.45;;;6.75;;
27758;SDS011;15148;48.972;12.794;2023-12-14T22:28:13;7.50;;;6.72;;
27758;SDS011;15148;48.972;12.794;2023-12-14T22:33:15;7.45;;;6.75;;
27758;SDS011;15148;48.972;12.794;2023-12-14T22:38:19;7.40;;;6.57;;
27758;SDS011;15148;48.972;12.794;2023-12-14T22:43:21;7.40;;;6.70;;
27758;SDS011;15148;48.972;12.794;2023-12-14T22:48:23;7.28;;;6.40;;
27758;SDS011;15148;48.972;12.794;2023-12-14T22:53:25;7.47;;;5.75;;
27758;SDS011;15148;48.972;12.794;2023-12-14T22:58:29;6.15;;;5.55;;
27758;SDS011;15148;48.972;12.794;2023-12-14T23:03:31;5.85;;;5.25;;
27758;SDS011;15148;48.972;12.794;2023-12-14T23:08:34;6.55;;;5.10;;
27758;SDS011;15148;48.972;12.794;2023-12-14T23:13:36;6.75;;;5.63;;
27758;SDS011;15148;48.972;12.794;2023-12-14T23:18:37;13.25;;;8.10;;
27758;SDS011;15148;48.972;12.794;2023-12-14T23:23:39;18.67;;;9.40;;
27758;SDS011;15148;48.972;12.794;2023-12-14T23:28:42;6.82;;;5.80;;
27758;SDS011;15148;48.972;12.794;2023-12-14T23:33:44;5.88;;;5.28;;
27758;SDS011;15148;48.972;12.794;2023-12-14T23:38:46;9.10;;;6.68;;
27758;SDS011;15148;48.972;12.794;2023-12-14T23:43:48;9.70;;;7.50;;
27758;SDS011;15148;48.972;12.794;2023-12-14T23:48:50;10.07;;;7.32;;
27758;SDS011;15148;48.972;12.794;2023-12-14T23:53:54;11.88;;;7.65;;
27758;SDS011;15148;48.972;12.794;2023-12-14T23:58:56;8.60;;;6.53;;
